createdAt,value
2022-07-28T00:01:47.539Z,91.70
2022-07-28T00:04:16.383Z,91.70
2022-07-28T00:06:45.344Z,91.70
2022-07-28T00:09:13.831Z,91.80
2022-07-28T00:11:54.194Z,91.80
2022-07-28T00:14:23.701Z,91.90
2022-07-28T00:16:52.453Z,91.90
2022-07-28T00:19:21.233Z,91.90
2022-07-28T00:21:49.689Z,92.00
2022-07-28T00:24:18.421Z,92.00
2022-07-28T00:26:48.239Z,92.00
2022-07-28T00:29:16.769Z,92.10
2022-07-28T00:31:45.320Z,92.10
2022-07-28T00:34:14.432Z,92.20
2022-07-28T00:36:43.148Z,92.20
2022-07-28T00:39:12.411Z,92.30
2022-07-28T00:41:42.692Z,92.30
2022-07-28T00:44:12.890Z,92.30
2022-07-28T00:46:41.680Z,92.40
2022-07-28T00:49:10.575Z,92.40
2022-07-28T00:51:40.234Z,92.40
2022-07-28T00:54:09.045Z,92.50
2022-07-28T00:56:37.634Z,92.50
2022-07-28T00:59:06.317Z,92.60
2022-07-28T01:01:36.158Z,92.60
2022-07-28T01:04:05.760Z,92.60
2022-07-28T01:06:49.582Z,92.70
2022-07-28T01:09:32.699Z,92.70
2022-07-28T01:12:12.025Z,92.70
2022-07-28T01:14:46.044Z,92.70
2022-07-28T01:17:23.798Z,92.70
2022-07-28T01:20:03.743Z,92.80
2022-07-28T01:22:36.140Z,92.80
2022-07-28T01:25:19.070Z,92.80
2022-07-28T01:27:58.088Z,92.80
2022-07-28T01:30:36.227Z,92.80
2022-07-28T01:33:11.001Z,92.80
2022-07-28T01:35:44.690Z,92.90
2022-07-28T01:38:15.213Z,93.00
2022-07-28T01:40:48.435Z,92.90
2022-07-28T01:43:23.629Z,93.00
2022-07-28T01:45:56.908Z,93.00
2022-07-28T01:48:27.240Z,93.10
2022-07-28T01:50:57.580Z,93.10
2022-07-28T01:53:27.258Z,93.20
2022-07-28T01:55:57.171Z,93.10
2022-07-28T01:58:29.101Z,93.20
2022-07-28T02:01:01.687Z,93.30
2022-07-28T02:03:33.108Z,93.30
2022-07-28T02:06:05.636Z,93.30
2022-07-28T02:08:36.013Z,93.40
2022-07-28T02:11:22.664Z,93.40
2022-07-28T02:13:52.997Z,93.40
2022-07-28T02:16:26.123Z,93.50
2022-07-28T02:18:58.058Z,93.50
2022-07-28T02:21:27.497Z,93.60
2022-07-28T02:23:57.288Z,93.60
2022-07-28T02:26:29.315Z,93.70
2022-07-28T02:29:01.337Z,93.80
2022-07-28T02:31:37.793Z,93.80
2022-07-28T02:34:11.950Z,93.90
2022-07-28T02:36:44.969Z,93.90
2022-07-28T02:39:23.226Z,93.90
2022-07-28T02:42:03.879Z,94.00
2022-07-28T02:44:40.624Z,94.10
2022-07-28T02:47:17.000Z,94.10
2022-07-28T02:49:47.116Z,94.10
2022-07-28T02:52:17.347Z,94.10
2022-07-28T02:54:46.567Z,94.10
2022-07-28T02:57:18.044Z,94.20
2022-07-28T02:59:47.439Z,94.30
2022-07-28T03:02:20.538Z,94.20
2022-07-28T03:05:01.607Z,94.30
2022-07-28T03:07:32.368Z,94.30
2022-07-28T03:10:01.651Z,94.30
2022-07-28T03:12:30.547Z,94.40
2022-07-28T03:14:59.127Z,94.40
2022-07-28T03:17:29.322Z,94.40
2022-07-28T03:19:58.176Z,94.50
2022-07-28T03:22:26.888Z,94.50
2022-07-28T03:24:58.074Z,94.60
2022-07-28T03:27:31.093Z,94.70
2022-07-28T03:30:04.112Z,94.70
2022-07-28T03:32:36.944Z,94.80
2022-07-28T03:35:06.723Z,94.90
2022-07-28T03:37:41.807Z,94.90
2022-07-28T03:40:13.203Z,95.00
2022-07-28T03:42:44.919Z,95.00
2022-07-28T03:45:14.256Z,95.10
2022-07-28T03:47:52.625Z,95.10
2022-07-28T03:50:23.487Z,95.20
2022-07-28T03:52:52.672Z,95.20
2022-07-28T03:55:21.697Z,95.20
2022-07-28T03:57:50.350Z,95.30
2022-07-28T04:00:19.888Z,95.40
2022-07-28T04:02:49.087Z,95.40
2022-07-28T04:05:20.837Z,95.50
2022-07-28T04:07:49.797Z,95.50
2022-07-28T04:10:19.185Z,95.50
2022-07-28T04:12:53.316Z,95.60
2022-07-28T04:15:23.502Z,95.70
2022-07-28T04:17:53.141Z,95.80
2022-07-28T04:20:24.998Z,95.80
2022-07-28T04:22:54.569Z,95.80
2022-07-28T04:25:25.240Z,96.00
2022-07-28T04:27:54.633Z,96.00
2022-07-28T04:30:25.868Z,96.10
2022-07-28T04:32:56.562Z,96.20
2022-07-28T04:35:27.410Z,96.30
2022-07-28T04:37:58.535Z,96.30
2022-07-28T04:40:28.156Z,96.40
2022-07-28T04:42:57.058Z,96.50
2022-07-28T04:45:25.568Z,96.60
2022-07-28T04:47:54.105Z,96.70
2022-07-28T04:50:22.701Z,96.70
2022-07-28T04:53:00.805Z,96.80
2022-07-28T04:55:29.478Z,96.90
2022-07-28T04:57:57.967Z,96.90
2022-07-28T05:00:27.530Z,97.00
2022-07-28T05:02:58.367Z,97.00
2022-07-28T05:05:27.826Z,97.10
2022-07-28T05:07:56.533Z,97.10
2022-07-28T05:10:26.643Z,97.20
2022-07-28T05:12:55.505Z,97.30
2022-07-28T05:15:24.410Z,97.30
2022-07-28T05:17:52.943Z,97.40
2022-07-28T05:20:21.693Z,97.50
2022-07-28T05:22:53.657Z,97.60
2022-07-28T05:25:24.665Z,97.60
2022-07-28T05:27:55.811Z,97.80
2022-07-28T05:30:24.447Z,97.90
2022-07-28T05:32:59.136Z,97.90
2022-07-28T05:35:28.043Z,98.00
2022-07-28T05:37:56.941Z,98.10
2022-07-28T05:40:26.641Z,98.20
2022-07-28T05:42:56.632Z,98.30
2022-07-28T05:45:25.420Z,98.50
2022-07-28T05:47:54.619Z,98.70
2022-07-28T05:50:24.524Z,98.80
2022-07-28T05:52:53.033Z,99.00
2022-07-28T05:55:21.774Z,99.10
2022-07-28T05:57:50.845Z,99.20
2022-07-28T06:00:24.076Z,99.30
2022-07-28T06:02:53.272Z,99.50
2022-07-28T06:05:23.357Z,99.70
2022-07-28T06:07:53.057Z,99.80
2022-07-28T06:10:23.637Z,99.90
2022-07-28T06:12:54.054Z,99.90
2022-07-28T06:15:25.939Z,99.90
2022-07-28T06:17:56.023Z,99.90
2022-07-28T06:20:27.771Z,99.90
2022-07-28T06:22:57.249Z,99.90
2022-07-28T06:25:27.309Z,99.90
2022-07-28T06:27:58.143Z,99.90
2022-07-28T06:30:28.547Z,99.90
2022-07-28T06:32:58.251Z,99.90
2022-07-28T06:35:27.241Z,99.90
2022-07-28T06:37:55.810Z,99.90
2022-07-28T06:40:25.263Z,99.90
2022-07-28T06:42:53.880Z,99.90
2022-07-28T06:45:22.560Z,99.90
2022-07-28T06:47:53.887Z,99.90
2022-07-28T06:50:24.904Z,99.90
2022-07-28T06:52:56.590Z,99.90
2022-07-28T06:55:28.422Z,99.90
2022-07-28T06:58:04.161Z,99.90
2022-07-28T07:00:33.894Z,99.90
2022-07-28T07:03:04.085Z,99.90
2022-07-28T07:05:32.990Z,99.90
2022-07-28T07:08:01.885Z,99.90
2022-07-28T07:10:30.538Z,99.90
2022-07-28T07:12:59.073Z,99.90
2022-07-28T07:15:28.102Z,99.90
2022-07-28T07:17:56.986Z,99.90
2022-07-28T07:20:26.963Z,99.90
2022-07-28T07:22:55.596Z,99.90
2022-07-28T07:25:24.342Z,99.90
2022-07-28T07:27:52.995Z,99.90
2022-07-28T07:30:22.041Z,99.90
2022-07-28T07:32:50.588Z,99.90
2022-07-28T07:35:19.312Z,99.90
2022-07-28T07:37:49.226Z,99.90
2022-07-28T07:40:17.904Z,99.90
2022-07-28T07:42:46.778Z,99.90
2022-07-28T07:45:18.640Z,99.90
2022-07-28T07:47:47.427Z,99.90
2022-07-28T07:50:16.094Z,99.90
2022-07-28T07:52:44.715Z,99.90
2022-07-28T07:55:14.856Z,99.90
2022-07-28T07:57:43.709Z,99.90
2022-07-28T08:00:29.096Z,99.90
2022-07-28T08:02:58.431Z,99.90
2022-07-28T08:05:35.365Z,99.90
2022-07-28T08:08:07.012Z,99.90
2022-07-28T08:10:41.520Z,99.90
2022-07-28T08:13:10.373Z,99.90
2022-07-28T08:15:39.133Z,99.90
2022-07-28T08:18:07.791Z,99.90
2022-07-28T08:20:36.330Z,99.90
2022-07-28T08:23:06.206Z,99.90
2022-07-28T08:25:38.403Z,99.90
2022-07-28T08:28:09.643Z,99.90
2022-07-28T08:30:38.535Z,99.90
2022-07-28T08:33:07.172Z,99.90
2022-07-28T08:35:36.743Z,99.90
2022-07-28T08:38:06.384Z,99.90
2022-07-28T08:40:41.928Z,99.90
2022-07-28T08:43:19.193Z,99.90
2022-07-28T08:45:53.729Z,99.90
2022-07-28T08:48:29.786Z,99.90
2022-07-28T08:51:02.979Z,99.90
2022-07-28T08:53:32.601Z,99.90
2022-07-28T08:56:05.745Z,99.90
2022-07-28T08:58:36.085Z,99.90
2022-07-28T09:01:07.016Z,99.90
2022-07-28T09:03:36.203Z,99.90
2022-07-28T09:06:05.524Z,99.90
2022-07-28T09:08:34.366Z,99.90
2022-07-28T09:11:06.241Z,99.90
2022-07-28T09:13:36.247Z,99.90
2022-07-28T09:16:07.463Z,99.90
2022-07-28T09:18:36.409Z,99.90
2022-07-28T09:21:04.973Z,99.90
2022-07-28T09:23:44.591Z,99.90
2022-07-28T09:26:14.692Z,99.90
2022-07-28T09:28:51.510Z,99.90
2022-07-28T09:31:21.197Z,99.90
2022-07-28T09:33:58.457Z,99.90
2022-07-28T09:36:27.066Z,99.90
2022-07-28T09:38:56.618Z,99.90
2022-07-28T09:41:26.531Z,99.90
2022-07-28T09:43:55.925Z,99.90
2022-07-28T09:46:29.939Z,99.90
2022-07-28T09:49:00.928Z,99.90
2022-07-28T09:51:31.113Z,99.90
2022-07-28T09:54:11.191Z,99.90
2022-07-28T09:56:43.259Z,99.90
2022-07-28T09:59:14.779Z,99.90
2022-07-28T10:01:55.284Z,99.90
2022-07-28T10:04:34.054Z,99.90
2022-07-28T10:07:05.523Z,99.90
2022-07-28T10:09:35.256Z,99.90
2022-07-28T10:12:20.450Z,99.90
2022-07-28T10:14:50.404Z,99.90
2022-07-28T10:17:27.155Z,99.90
2022-07-28T10:19:58.314Z,99.90
2022-07-28T10:22:32.067Z,99.90
2022-07-28T10:25:03.021Z,99.90
2022-07-28T10:27:33.839Z,99.80
2022-07-28T10:30:07.077Z,99.70
2022-07-28T10:32:41.540Z,99.50
2022-07-28T10:35:12.433Z,99.40
2022-07-28T10:37:50.121Z,99.30
2022-07-28T10:40:21.794Z,99.20
2022-07-28T10:42:53.152Z,99.00
2022-07-28T10:45:22.252Z,98.80
2022-07-28T10:47:51.703Z,98.70
2022-07-28T10:50:23.802Z,99.10
2022-07-28T10:52:57.511Z,98.60
2022-07-28T10:55:38.026Z,98.40
2022-07-28T10:58:15.585Z,98.20
2022-07-28T11:00:55.888Z,98.20
2022-07-28T11:03:40.935Z,98.00
2022-07-28T11:06:28.587Z,98.20
2022-07-28T11:08:58.734Z,98.30
2022-07-28T11:11:55.325Z,98.00
2022-07-28T11:14:33.948Z,97.90
2022-07-28T11:17:24.588Z,97.60
2022-07-28T11:22:52.017Z,97.40
2022-07-28T11:25:22.533Z,97.20
2022-07-28T11:28:07.582Z,97.00
2022-07-28T11:30:55.106Z,96.70
2022-07-28T11:33:27.399Z,96.10
2022-07-28T11:36:01.099Z,96.20
2022-07-28T11:38:31.223Z,96.10
2022-07-28T11:40:59.793Z,96.10
2022-07-28T11:43:39.778Z,96.00
2022-07-28T11:46:38.437Z,95.80
2022-07-28T11:49:31.245Z,95.60
2022-07-28T11:52:17.765Z,95.50
2022-07-28T11:54:53.733Z,95.10
2022-07-28T11:57:27.269Z,94.80
2022-07-28T12:00:01.256Z,94.90
2022-07-28T12:02:33.923Z,94.70
2022-07-28T12:05:12.941Z,94.80
2022-07-28T12:07:49.978Z,94.60
2022-07-28T12:10:53.370Z,94.50
2022-07-28T12:13:27.954Z,94.40
2022-07-28T12:15:56.602Z,94.20
2022-07-28T12:18:26.598Z,94.40
2022-07-28T12:20:55.551Z,94.20
2022-07-28T12:23:38.974Z,94.00
2022-07-28T12:26:31.744Z,93.40
2022-07-28T12:29:01.224Z,93.10
2022-07-28T12:31:33.099Z,92.70
2022-07-28T12:34:06.183Z,92.40
2022-07-28T12:36:35.520Z,92.50
2022-07-28T12:39:09.477Z,92.60
2022-07-28T12:41:41.061Z,92.70
2022-07-28T12:44:11.403Z,92.70
2022-07-28T12:46:45.292Z,92.70
2022-07-28T12:49:23.181Z,92.70
2022-07-28T12:51:51.986Z,92.70
2022-07-28T12:54:36.225Z,92.50
2022-07-28T12:57:05.536Z,92.10
2022-07-28T12:59:35.088Z,92.40
2022-07-28T13:02:04.639Z,92.10
2022-07-28T13:04:44.270Z,91.80
2022-07-28T13:07:17.687Z,91.10
2022-07-28T13:10:00.606Z,91.00
2022-07-28T13:12:30.892Z,90.90
2022-07-28T13:15:01.403Z,90.80
2022-07-28T13:17:48.964Z,90.50
2022-07-28T13:20:20.513Z,90.30
2022-07-28T13:22:49.148Z,90.00
2022-07-28T13:25:17.929Z,89.00
2022-07-28T13:27:49.661Z,87.70
2022-07-28T13:30:22.698Z,86.80
2022-07-28T13:32:51.501Z,86.80
2022-07-28T13:35:22.411Z,86.70
2022-07-28T13:37:51.267Z,86.50
2022-07-28T13:40:19.962Z,86.30
2022-07-28T13:42:53.285Z,85.80
2022-07-28T13:45:30.177Z,85.10
2022-07-28T13:47:58.906Z,84.90
2022-07-28T13:50:28.853Z,84.60
2022-07-28T13:52:57.855Z,84.50
2022-07-28T13:55:27.568Z,84.40
2022-07-28T13:57:56.435Z,84.10
2022-07-28T14:00:25.858Z,83.90
2022-07-28T14:02:55.067Z,83.20
2022-07-28T14:05:23.667Z,82.10
2022-07-28T14:07:53.834Z,81.50
2022-07-28T14:10:26.705Z,81.90
2022-07-28T14:12:56.470Z,81.80
2022-07-28T14:15:24.955Z,81.80
2022-07-28T14:17:53.663Z,81.60
2022-07-28T14:20:22.203Z,80.90
2022-07-28T14:22:53.974Z,80.90
2022-07-28T14:25:24.654Z,80.20
2022-07-28T14:27:54.522Z,79.40
2022-07-28T14:30:25.996Z,78.70
2022-07-28T14:32:55.550Z,78.40
2022-07-28T14:35:24.844Z,78.30
2022-07-28T14:38:41.974Z,78.50
2022-07-28T14:40:43.413Z,78.70
2022-07-28T14:43:11.937Z,78.50
2022-07-28T14:45:51.969Z,78.50
2022-07-28T14:48:31.615Z,78.30
2022-07-28T14:51:01.294Z,77.80
2022-07-28T14:53:31.295Z,77.70
2022-07-28T14:56:03.710Z,77.60
2022-07-28T14:58:32.299Z,77.80
2022-07-28T15:01:01.243Z,77.40
2022-07-28T15:03:35.665Z,76.90
2022-07-28T15:06:04.877Z,76.70
2022-07-28T15:08:34.855Z,76.40
2022-07-28T15:11:03.385Z,75.80
2022-07-28T15:13:31.898Z,75.80
2022-07-28T15:16:00.781Z,75.60
2022-07-28T15:18:29.335Z,75.20
2022-07-28T15:20:57.848Z,75.20
2022-07-28T15:23:26.390Z,75.00
2022-07-28T15:25:56.375Z,74.70
2022-07-28T15:28:24.902Z,74.50
2022-07-28T15:30:54.546Z,74.30
2022-07-28T15:33:25.482Z,74.20
2022-07-28T15:35:58.784Z,74.30
2022-07-28T15:38:29.445Z,74.40
2022-07-28T15:41:01.847Z,74.50
2022-07-28T15:43:35.839Z,74.60
2022-07-28T15:46:09.251Z,74.50
2022-07-28T15:48:38.367Z,74.30
2022-07-28T15:51:07.022Z,74.20
2022-07-28T15:53:36.075Z,74.00
2022-07-28T15:56:06.863Z,74.00
2022-07-28T15:58:35.632Z,73.80
2022-07-28T16:01:04.581Z,73.90
2022-07-28T16:03:33.162Z,74.10
2022-07-28T16:06:02.135Z,74.10
2022-07-28T16:08:31.328Z,74.10
2022-07-28T16:10:59.902Z,74.00
2022-07-28T16:13:35.924Z,74.10
2022-07-28T16:16:09.504Z,74.20
2022-07-28T16:18:39.909Z,74.40
2022-07-28T16:21:10.276Z,74.40
2022-07-28T16:23:39.183Z,74.40
2022-07-28T16:26:09.345Z,74.60
2022-07-28T16:28:39.643Z,74.50
2022-07-28T16:31:08.468Z,74.50
2022-07-28T16:33:37.171Z,74.50
2022-07-28T16:36:06.432Z,74.50
2022-07-28T16:38:35.017Z,74.60
2022-07-28T16:41:04.247Z,74.40
2022-07-28T16:43:33.224Z,74.50
2022-07-28T16:46:03.590Z,74.60
2022-07-28T16:48:32.122Z,75.30
2022-07-28T16:51:02.137Z,74.80
2022-07-28T16:53:30.803Z,74.80
2022-07-28T16:55:59.551Z,74.70
2022-07-28T16:58:28.296Z,74.80
2022-07-28T17:00:57.138Z,74.90
2022-07-28T17:03:29.146Z,74.80
2022-07-28T17:05:57.854Z,74.90
2022-07-28T17:08:26.478Z,75.00
2022-07-28T17:10:55.060Z,74.90
2022-07-28T17:13:25.635Z,74.90
2022-07-28T17:15:54.783Z,74.90
2022-07-28T17:18:23.723Z,75.00
2022-07-28T17:20:53.658Z,75.00
2022-07-28T17:23:22.175Z,75.10
2022-07-28T17:26:29.714Z,75.10
2022-07-28T17:28:39.314Z,75.20
2022-07-28T17:31:08.045Z,75.10
2022-07-28T17:33:36.796Z,75.20
2022-07-28T17:36:07.443Z,75.30
2022-07-28T17:38:36.089Z,75.40
2022-07-28T17:41:04.740Z,75.40
2022-07-28T17:43:33.757Z,75.40
2022-07-28T17:46:02.990Z,75.40
2022-07-28T17:48:38.398Z,75.40
2022-07-28T17:51:08.615Z,75.50
2022-07-28T17:53:39.519Z,75.60
2022-07-28T17:56:09.117Z,75.60
2022-07-28T17:58:38.776Z,75.60
2022-07-28T18:01:12.034Z,75.90
2022-07-28T18:03:57.058Z,75.80
2022-07-28T18:06:34.221Z,75.80
2022-07-28T18:09:05.982Z,75.90
2022-07-28T18:11:56.784Z,75.90
2022-07-28T18:14:28.402Z,76.00
2022-07-28T18:16:57.527Z,75.90
2022-07-28T18:19:26.444Z,76.00
2022-07-28T18:21:56.956Z,76.00
2022-07-28T18:24:26.587Z,76.10
2022-07-28T18:26:55.853Z,76.10
2022-07-28T18:29:26.113Z,76.10
2022-07-28T18:32:10.007Z,76.20
2022-07-28T18:34:39.197Z,76.20
2022-07-28T18:37:09.195Z,76.20
2022-07-28T18:39:37.986Z,76.30
2022-07-28T18:42:06.821Z,76.40
2022-07-28T18:44:35.574Z,76.40
2022-07-28T18:47:04.416Z,77.20
2022-07-28T18:49:37.123Z,76.40
2022-07-28T18:52:08.527Z,76.50
2022-07-28T18:54:37.217Z,76.70
2022-07-28T18:57:05.893Z,76.70
2022-07-28T18:59:34.356Z,76.80
2022-07-28T19:02:03.086Z,76.80
2022-07-28T19:04:31.785Z,76.80
2022-07-28T19:07:00.690Z,76.80
2022-07-28T19:09:30.838Z,77.00
2022-07-28T19:12:06.742Z,77.00
2022-07-28T19:14:35.627Z,77.00
2022-07-28T19:17:05.730Z,77.10
2022-07-28T19:19:36.440Z,77.20
2022-07-28T19:22:06.429Z,77.30
2022-07-28T19:24:37.011Z,77.20
2022-07-28T19:27:07.145Z,77.40
2022-07-28T19:29:36.469Z,77.40
2022-07-28T19:32:06.447Z,77.40
2022-07-28T19:34:36.041Z,77.60
2022-07-28T19:37:04.644Z,77.60
2022-07-28T19:39:34.526Z,77.60
2022-07-28T19:42:06.366Z,77.70
2022-07-28T19:44:35.021Z,77.90
2022-07-28T19:47:03.655Z,77.80
2022-07-28T19:49:32.449Z,78.00
2022-07-28T19:52:01.315Z,78.00
2022-07-28T19:54:29.961Z,78.10
2022-07-28T19:57:00.189Z,78.20
2022-07-28T19:59:33.711Z,78.30
2022-07-28T20:02:04.297Z,78.30
2022-07-28T20:04:33.104Z,78.40
2022-07-28T20:07:01.857Z,78.40
2022-07-28T20:09:30.563Z,78.50
2022-07-28T20:11:59.306Z,78.60
2022-07-28T20:14:27.998Z,78.70
2022-07-28T20:16:58.879Z,78.70
2022-07-28T20:19:27.636Z,78.90
2022-07-28T20:21:57.210Z,79.00
2022-07-28T20:24:25.925Z,79.00
2022-07-28T20:26:54.539Z,79.10
2022-07-28T20:29:23.244Z,79.20
2022-07-28T20:31:51.737Z,79.30
2022-07-28T20:34:21.946Z,79.50
2022-07-28T20:36:50.416Z,79.60
2022-07-28T20:39:43.401Z,79.60
2022-07-28T20:42:07.870Z,79.70
2022-07-28T20:44:37.037Z,79.80
2022-07-28T20:47:07.212Z,79.80
2022-07-28T20:49:37.157Z,79.90
2022-07-28T20:52:08.818Z,80.00
2022-07-28T20:54:37.379Z,80.10
2022-07-28T20:57:06.153Z,80.20
2022-07-28T20:59:34.828Z,80.20
2022-07-28T21:02:03.663Z,80.40
2022-07-28T21:04:32.293Z,80.50
2022-07-28T21:07:04.182Z,80.50
2022-07-28T21:09:33.088Z,80.60
2022-07-28T21:12:01.770Z,80.70
2022-07-28T21:14:32.211Z,80.80
2022-07-28T21:17:01.050Z,80.90
2022-07-28T21:19:30.037Z,81.00
2022-07-28T21:21:58.581Z,81.20
2022-07-28T21:24:28.620Z,81.20
2022-07-28T21:26:57.169Z,81.40
2022-07-28T21:32:04.150Z,81.40
2022-07-28T21:34:35.606Z,81.50
2022-07-28T21:37:04.662Z,81.50
2022-07-28T21:39:35.766Z,81.60
2022-07-28T21:42:07.695Z,81.70
2022-07-28T21:44:37.682Z,81.70
2022-07-28T21:47:06.656Z,82.20
2022-07-28T21:49:35.298Z,81.90
2022-07-28T21:52:03.871Z,82.00
2022-07-28T21:54:33.968Z,82.20
2022-07-28T21:57:02.553Z,82.20
2022-07-28T21:59:31.256Z,82.30
2022-07-28T22:01:59.949Z,82.40
2022-07-28T22:04:28.636Z,82.70
2022-07-28T22:06:57.184Z,82.50
2022-07-28T22:09:25.877Z,82.70
2022-07-28T22:11:55.944Z,82.80
2022-07-28T22:14:25.526Z,82.80
2022-07-28T22:16:54.166Z,83.60
2022-07-28T22:19:22.773Z,83.10
2022-07-28T22:21:51.756Z,83.10
2022-07-28T22:24:22.805Z,83.20
2022-07-28T22:26:51.623Z,83.30
2022-07-28T22:29:21.663Z,83.30
2022-07-28T22:31:50.321Z,83.50
2022-07-28T22:34:20.091Z,83.50
2022-07-28T22:36:48.635Z,83.60
2022-07-28T22:39:17.265Z,83.80
2022-07-28T22:41:47.073Z,83.70
2022-07-28T22:44:15.981Z,83.90
2022-07-28T22:46:46.686Z,84.00
2022-07-28T22:49:15.331Z,84.00
2022-07-28T22:51:46.370Z,84.00
2022-07-28T22:54:17.725Z,84.30
2022-07-28T22:56:46.642Z,84.20
2022-07-28T22:59:15.796Z,84.30
2022-07-28T23:01:47.863Z,84.50
2022-07-28T23:04:16.772Z,84.60
2022-07-28T23:06:45.701Z,84.50
2022-07-28T23:09:14.390Z,84.70
2022-07-28T23:11:43.169Z,84.90
2022-07-28T23:14:24.701Z,84.90
2022-07-28T23:16:54.652Z,85.00
2022-07-28T23:19:23.306Z,85.20
2022-07-28T23:21:52.178Z,85.20
2022-07-28T23:24:22.094Z,85.20
2022-07-28T23:26:50.694Z,85.30
2022-07-28T23:29:19.522Z,85.40
2022-07-28T23:31:49.607Z,85.50
2022-07-28T23:34:19.735Z,85.70
2022-07-28T23:36:50.894Z,85.80
2022-07-28T23:39:19.534Z,85.90
2022-07-28T23:41:48.083Z,86.00
2022-07-28T23:44:17.069Z,86.10
2022-07-28T23:46:45.967Z,86.10
2022-07-28T23:49:15.498Z,86.20
2022-07-28T23:51:48.499Z,86.30
2022-07-28T23:54:18.066Z,86.40
2022-07-28T23:56:51.262Z,86.50
2022-07-28T23:59:20.234Z,86.50
